createdAt,value
2018-02-20T00:01:52.612Z,69.77
2018-02-20T00:04:19.388Z,72.50
2018-02-20T00:06:46.150Z,56.63
2018-02-20T00:09:12.976Z,79.17
2018-02-20T00:11:39.737Z,65.87
2018-02-20T00:14:06.513Z,64.60
2018-02-20T00:16:33.280Z,72.60
2018-02-20T00:19:00.040Z,68.03
2018-02-20T00:21:26.837Z,67.10
2018-02-20T00:23:53.613Z,70.93
2018-02-20T00:26:20.367Z,68.27
2018-02-20T00:28:47.155Z,72.27
2018-02-20T00:31:13.930Z,59.50
2018-02-20T00:33:40.770Z,71.67
2018-02-20T00:36:07.535Z,69.43
2018-02-20T00:38:34.318Z,74.97
2018-02-20T00:41:01.095Z,77.37
2018-02-20T00:43:27.860Z,68.40
2018-02-20T00:45:54.681Z,66.50
2018-02-20T00:48:21.426Z,70.90
2018-02-20T00:50:48.209Z,67.63
2018-02-20T00:53:15.020Z,66.17
2018-02-20T00:55:41.789Z,73.30
2018-02-20T00:58:08.591Z,63.70
2018-02-20T01:00:35.376Z,75.70
2018-02-20T01:03:02.795Z,63.10
2018-02-20T01:05:29.565Z,56.67
2018-02-20T01:07:56.332Z,64.93
2018-02-20T01:10:23.154Z,64.83
2018-02-20T01:12:49.919Z,66.93
2018-02-20T01:15:16.708Z,72.00
2018-02-20T01:17:43.466Z,68.60
2018-02-20T01:20:10.250Z,71.90
2018-02-20T01:22:37.049Z,68.93
2018-02-20T01:25:04.470Z,66.73
2018-02-20T01:27:31.246Z,62.00
2018-02-20T01:29:58.021Z,83.77
2018-02-20T01:32:24.787Z,70.37
2018-02-20T01:34:51.575Z,66.40
2018-02-20T01:37:18.372Z,54.97
2018-02-20T01:39:45.149Z,60.87
2018-02-20T01:42:11.907Z,64.13
2018-02-20T01:44:38.647Z,70.23
2018-02-20T01:47:05.437Z,72.27
2018-02-20T01:49:32.195Z,79.17
2018-02-20T01:51:58.981Z,74.90
2018-02-20T01:54:25.737Z,73.90
2018-02-20T01:56:52.520Z,87.10
2018-02-20T01:59:19.332Z,76.03
2018-02-20T02:01:46.169Z,65.23
2018-02-20T02:04:12.953Z,75.10
2018-02-20T02:06:39.753Z,69.67
2018-02-20T02:09:06.521Z,69.77
2018-02-20T02:11:33.308Z,74.00
2018-02-20T02:14:00.244Z,73.83
2018-02-20T02:16:27.021Z,63.60
2018-02-20T02:18:54.094Z,70.10
2018-02-20T02:21:20.846Z,57.23
2018-02-20T02:23:47.649Z,60.37
2018-02-20T02:26:14.435Z,80.23
2018-02-20T02:28:41.191Z,72.17
2018-02-20T02:31:07.999Z,64.73
2018-02-20T02:33:34.765Z,64.20
2018-02-20T02:36:01.581Z,63.87
2018-02-20T02:38:28.339Z,67.63
2018-02-20T02:40:55.838Z,61.23
2018-02-20T02:43:22.628Z,69.77
2018-02-20T02:45:49.392Z,61.43
2018-02-20T02:48:16.212Z,70.50
2018-02-20T02:50:42.958Z,59.17
2018-02-20T02:53:09.728Z,66.50
2018-02-20T02:55:36.895Z,70.63
2018-02-20T02:58:03.694Z,58.33
2018-02-20T03:00:30.465Z,58.07
2018-02-20T03:02:57.885Z,62.87
2018-02-20T03:05:24.638Z,59.23
2018-02-20T03:07:51.389Z,68.53
2018-02-20T03:10:18.207Z,68.57
2018-02-20T03:12:44.981Z,67.40
2018-02-20T03:15:11.741Z,74.27
2018-02-20T03:17:39.140Z,57.47
2018-02-20T03:20:06.637Z,66.70
2018-02-20T03:22:33.385Z,69.60
2018-02-20T03:25:00.163Z,61.50
2018-02-20T03:27:26.936Z,53.60
2018-02-20T03:29:53.686Z,61.17
2018-02-20T03:32:20.439Z,63.23
2018-02-20T03:34:47.244Z,61.87
2018-02-20T03:37:14.089Z,56.90
2018-02-20T03:39:40.847Z,67.73
2018-02-20T03:42:07.635Z,64.00
2018-02-20T03:44:34.392Z,66.37
2018-02-20T03:47:01.166Z,73.57
2018-02-20T03:49:27.937Z,70.07
2018-02-20T03:51:54.750Z,61.13
2018-02-20T03:54:22.091Z,71.73
2018-02-20T03:56:48.837Z,62.43
2018-02-20T03:59:15.606Z,63.80
2018-02-20T04:01:42.346Z,71.23
2018-02-20T04:04:09.134Z,73.50
2018-02-20T04:06:36.571Z,76.17
2018-02-20T04:09:03.366Z,69.20
2018-02-20T04:11:30.111Z,70.73
2018-02-20T04:13:56.902Z,70.20
2018-02-20T04:16:23.701Z,77.70
2018-02-20T04:18:50.446Z,85.60
2018-02-20T04:21:17.193Z,70.10
2018-02-20T04:23:43.942Z,70.03
2018-02-20T04:26:10.734Z,68.67
2018-02-20T04:28:37.535Z,82.47
2018-02-20T04:31:04.290Z,68.63
2018-02-20T04:33:31.077Z,71.00
2018-02-20T04:35:57.920Z,80.30
2018-02-20T04:38:24.681Z,59.50
2018-02-20T04:40:51.498Z,68.93
2018-02-20T04:43:18.257Z,77.57
2018-02-20T04:45:45.039Z,76.33
2018-02-20T04:48:11.956Z,70.37
2018-02-20T04:50:38.742Z,68.97
2018-02-20T04:53:05.541Z,91.57
2018-02-20T04:55:32.318Z,66.37
2018-02-20T04:57:59.103Z,80.57
2018-02-20T05:00:25.843Z,74.53
2018-02-20T05:02:52.638Z,59.33
2018-02-20T05:05:19.449Z,69.93
2018-02-20T05:07:46.185Z,67.93
2018-02-20T05:10:12.948Z,78.20
2018-02-20T05:12:39.719Z,68.47
2018-02-20T05:15:06.532Z,61.90
2018-02-20T05:17:33.322Z,68.53
2018-02-20T05:20:00.086Z,65.90
2018-02-20T05:22:26.844Z,64.93
2018-02-20T05:24:53.619Z,66.00
2018-02-20T05:27:20.371Z,66.20
2018-02-20T05:29:47.201Z,63.77
2018-02-20T05:32:13.953Z,64.03
2018-02-20T05:34:40.714Z,68.07
2018-02-20T05:37:08.151Z,78.37
2018-02-20T05:39:34.925Z,64.33
2018-02-20T05:42:02.371Z,66.63
2018-02-20T05:44:29.122Z,67.43
2018-02-20T05:46:55.873Z,78.23
2018-02-20T05:49:22.654Z,63.93
2018-02-20T05:51:49.411Z,87.57
2018-02-20T05:54:16.215Z,63.67
2018-02-20T05:56:43.031Z,55.37
2018-02-20T05:59:09.806Z,73.77
2018-02-20T06:01:36.600Z,77.37
2018-02-20T06:04:03.381Z,65.47
2018-02-20T06:06:30.848Z,77.93
2018-02-20T06:08:57.607Z,67.63
2018-02-20T06:11:24.394Z,69.53
2018-02-20T06:13:51.154Z,67.30
2018-02-20T06:16:17.968Z,71.37
2018-02-20T06:18:44.781Z,67.60
2018-02-20T06:21:11.553Z,63.73
2018-02-20T06:23:38.317Z,72.13
2018-02-20T06:26:05.396Z,67.33
2018-02-20T06:28:32.165Z,60.07
2018-02-20T06:30:58.954Z,69.93
2018-02-20T06:33:25.886Z,61.27
2018-02-20T06:35:52.686Z,78.53
2018-02-20T06:38:19.552Z,70.00
2018-02-20T06:40:46.310Z,55.23
2018-02-20T06:43:13.147Z,71.07
2018-02-20T06:45:39.913Z,65.67
2018-02-20T06:48:06.716Z,61.10
2018-02-20T06:50:33.470Z,62.23
2018-02-20T06:53:00.727Z,75.73
2018-02-20T06:55:27.514Z,63.67
2018-02-20T06:57:54.289Z,60.33
2018-02-20T07:00:21.845Z,78.40
2018-02-20T07:02:49.477Z,73.00
2018-02-20T07:05:16.235Z,63.47
2018-02-20T07:07:43.053Z,72.27
2018-02-20T07:10:09.814Z,65.30
2018-02-20T07:12:36.589Z,65.57
2018-02-20T07:15:03.385Z,66.77
2018-02-20T07:17:30.177Z,67.20
2018-02-20T07:19:56.987Z,63.80
2018-02-20T07:22:23.761Z,71.10
2018-02-20T07:24:50.564Z,62.20
2018-02-20T07:27:17.336Z,66.93
2018-02-20T07:29:44.095Z,58.63
2018-02-20T07:32:10.895Z,69.23
2018-02-20T07:34:37.657Z,53.03
2018-02-20T07:37:04.457Z,60.87
2018-02-20T07:39:31.238Z,73.20
2018-02-20T07:41:58.119Z,68.23
2018-02-20T07:44:24.934Z,71.13
2018-02-20T07:46:51.690Z,59.27
2018-02-20T07:49:18.462Z,60.10
2018-02-20T07:51:45.237Z,64.93
2018-02-20T07:54:12.008Z,60.83
2018-02-20T07:56:38.845Z,73.17
2018-02-20T07:59:05.590Z,57.17
2018-02-20T08:01:32.372Z,62.33
2018-02-20T08:03:59.141Z,66.50
2018-02-20T08:06:25.911Z,52.20
2018-02-20T08:08:52.698Z,78.40
2018-02-20T08:11:19.593Z,64.27
2018-02-20T08:13:46.365Z,50.73
2018-02-20T08:16:13.115Z,53.70
2018-02-20T08:18:39.891Z,62.73
2018-02-20T08:21:06.702Z,61.23
2018-02-20T08:23:33.495Z,60.30
2018-02-20T08:26:00.281Z,60.97
2018-02-20T08:28:27.030Z,78.10
2018-02-20T08:30:53.794Z,61.20
2018-02-20T08:33:20.599Z,59.53
2018-02-20T08:35:47.375Z,63.23
2018-02-20T08:38:14.123Z,73.03
2018-02-20T08:40:40.867Z,69.67
2018-02-20T08:43:07.650Z,69.13
2018-02-20T08:45:34.451Z,64.70
2018-02-20T08:48:01.253Z,65.17
2018-02-20T08:50:28.037Z,72.10
2018-02-20T08:52:54.867Z,73.73
2018-02-20T08:55:21.614Z,55.43
2018-02-20T08:57:48.415Z,68.47
2018-02-20T09:00:15.201Z,67.60
2018-02-20T09:02:42.941Z,55.40
2018-02-20T09:05:09.720Z,59.27
2018-02-20T09:07:37.161Z,67.50
2018-02-20T09:10:04.714Z,63.70
2018-02-20T09:12:31.513Z,60.00
2018-02-20T09:14:58.262Z,55.23
2018-02-20T09:17:25.025Z,48.10
2018-02-20T09:19:51.790Z,45.73
2018-02-20T09:22:18.601Z,62.70
2018-02-20T09:24:45.374Z,50.00
2018-02-20T09:27:12.193Z,44.43
2018-02-20T09:29:39.019Z,54.60
2018-02-20T09:32:05.768Z,40.93
2018-02-20T09:34:32.705Z,44.17
2018-02-20T09:36:59.463Z,41.03
2018-02-20T09:39:26.212Z,42.40
2018-02-20T09:41:53.168Z,49.37
2018-02-20T09:44:19.965Z,40.77
2018-02-20T09:46:46.785Z,44.60
2018-02-20T09:49:13.552Z,49.03
2018-02-20T09:51:40.322Z,53.43
2018-02-20T09:54:07.111Z,42.90
2018-02-20T09:56:33.896Z,46.77
2018-02-20T09:59:00.710Z,49.90
2018-02-20T10:01:27.482Z,51.37
2018-02-20T10:03:54.242Z,40.27
2018-02-20T10:06:20.991Z,35.40
2018-02-20T10:08:47.784Z,41.47
2018-02-20T10:11:14.591Z,42.93
2018-02-20T10:13:41.362Z,39.30
2018-02-20T10:16:08.281Z,54.70
2018-02-20T10:18:35.135Z,42.23
2018-02-20T10:21:02.033Z,37.13
2018-02-20T10:23:28.845Z,45.47
2018-02-20T10:25:55.582Z,42.67
2018-02-20T10:28:22.716Z,40.70
2018-02-20T10:30:49.470Z,41.97
2018-02-20T10:33:16.259Z,43.90
2018-02-20T10:35:43.035Z,43.57
2018-02-20T10:38:09.799Z,41.73
2018-02-20T10:40:36.576Z,50.13
2018-02-20T10:43:03.385Z,43.77
2018-02-20T10:45:30.161Z,42.37
2018-02-20T10:47:57.848Z,33.17
2018-02-20T10:50:24.605Z,40.83
2018-02-20T10:52:51.386Z,35.73
2018-02-20T10:55:18.131Z,39.17
2018-02-20T10:57:44.927Z,30.10
2018-02-20T11:00:11.729Z,46.57
2018-02-20T11:02:38.508Z,40.83
2018-02-20T11:05:05.260Z,40.20
2018-02-20T11:07:32.010Z,40.97
2018-02-20T11:09:58.823Z,45.93
2018-02-20T11:12:25.608Z,45.70
2018-02-20T11:14:52.403Z,44.70
2018-02-20T11:17:19.181Z,37.73
2018-02-20T11:19:45.959Z,37.97
2018-02-20T11:22:12.745Z,48.77
2018-02-20T11:24:39.581Z,44.43
2018-02-20T11:27:06.335Z,41.90
2018-02-20T11:29:33.107Z,37.97
2018-02-20T11:31:59.878Z,43.63
2018-02-20T11:34:26.646Z,47.43
2018-02-20T11:36:53.478Z,32.43
2018-02-20T11:39:20.235Z,43.13
2018-02-20T11:41:46.997Z,42.73
2018-02-20T11:44:13.859Z,35.17
2018-02-20T11:46:40.637Z,37.00
2018-02-20T11:49:07.499Z,38.73
2018-02-20T11:51:34.250Z,36.40
2018-02-20T11:54:01.704Z,31.63
2018-02-20T11:56:28.487Z,37.93
2018-02-20T11:58:55.244Z,37.50
2018-02-20T12:01:22.111Z,30.23
2018-02-20T12:03:48.837Z,38.90
2018-02-20T12:06:16.448Z,39.47
2018-02-20T12:08:43.196Z,33.63
2018-02-20T12:11:09.949Z,36.53
2018-02-20T12:13:36.768Z,37.37
2018-02-20T12:16:04.319Z,47.53
2018-02-20T12:18:31.098Z,33.43
2018-02-20T12:20:57.886Z,35.77
2018-02-20T12:23:24.650Z,39.10
2018-02-20T12:25:51.447Z,42.67
2018-02-20T12:28:18.231Z,45.67
2018-02-20T12:30:45.014Z,39.97
2018-02-20T12:33:11.791Z,37.70
2018-02-20T12:35:38.564Z,47.67
2018-02-20T12:38:05.385Z,46.80
2018-02-20T12:40:32.137Z,46.47
2018-02-20T12:42:59.529Z,44.53
2018-02-20T12:45:28.685Z,44.27
2018-02-20T12:47:56.272Z,39.03
2018-02-20T12:50:23.073Z,49.27
2018-02-20T12:52:50.542Z,54.67
2018-02-20T12:55:17.312Z,50.37
2018-02-20T12:57:44.099Z,46.90
2018-02-20T13:00:11.175Z,45.43
2018-02-20T13:02:37.954Z,54.03
2018-02-20T13:05:04.795Z,42.63
2018-02-20T13:07:31.589Z,49.40
2018-02-20T13:09:58.471Z,49.57
2018-02-20T13:12:25.289Z,51.40
2018-02-20T13:14:52.800Z,47.87
2018-02-20T13:17:19.555Z,48.87
2018-02-20T13:19:46.345Z,51.30
2018-02-20T13:22:13.094Z,48.60
2018-02-20T13:24:39.901Z,56.33
2018-02-20T13:27:06.680Z,54.67
2018-02-20T13:29:34.197Z,53.03
2018-02-20T13:32:01.045Z,53.57
2018-02-20T13:34:27.799Z,47.83
2018-02-20T13:36:54.555Z,40.13
2018-02-20T13:39:22.109Z,49.37
2018-02-20T13:41:59.060Z,44.83
2018-02-20T13:44:25.907Z,38.67
2018-02-20T13:46:52.663Z,41.40
2018-02-20T13:49:19.508Z,46.73
2018-02-20T13:51:46.275Z,41.53
2018-02-20T13:54:13.074Z,31.97
2018-02-20T13:56:39.929Z,36.07
2018-02-20T13:59:06.682Z,38.73
2018-02-20T14:01:33.465Z,40.37
2018-02-20T14:04:00.282Z,29.63
2018-02-20T14:06:27.091Z,41.50
2018-02-20T14:08:53.847Z,42.10
2018-02-20T14:11:20.648Z,40.10
2018-02-20T14:13:47.431Z,34.53
2018-02-20T14:16:14.208Z,35.47
2018-02-20T14:18:41.041Z,39.90
2018-02-20T14:21:07.791Z,36.00
2018-02-20T14:23:34.586Z,40.90
2018-02-20T14:26:01.372Z,38.30
2018-02-20T14:28:28.821Z,33.23
2018-02-20T14:30:55.625Z,37.40
2018-02-20T14:33:22.410Z,32.63
2018-02-20T14:35:49.557Z,39.83
2018-02-20T14:38:16.541Z,42.40
2018-02-20T14:40:43.329Z,37.27
2018-02-20T14:43:10.071Z,41.40
2018-02-20T14:45:36.817Z,37.63
2018-02-20T14:48:03.619Z,40.50
2018-02-20T14:50:30.371Z,38.47
2018-02-20T14:52:57.146Z,35.67
2018-02-20T14:55:24.576Z,47.80
2018-02-20T14:57:51.470Z,40.30
2018-02-20T15:00:18.222Z,41.07
2018-02-20T15:02:45.002Z,35.93
2018-02-20T15:05:11.778Z,30.47
2018-02-20T15:07:38.527Z,34.63
2018-02-20T15:10:06.158Z,39.87
2018-02-20T15:12:32.917Z,41.20
2018-02-20T15:14:59.716Z,37.00
2018-02-20T15:17:26.493Z,42.70
2018-02-20T15:19:53.245Z,37.17
2018-02-20T15:22:20.773Z,38.10
2018-02-20T15:24:47.550Z,33.17
2018-02-20T15:27:14.334Z,33.30
2018-02-20T15:29:41.107Z,41.50
2018-02-20T15:32:07.901Z,33.73
2018-02-20T15:34:35.297Z,42.63
2018-02-20T15:37:02.079Z,37.67
2018-02-20T15:39:28.899Z,30.97
2018-02-20T15:41:55.665Z,35.57
2018-02-20T15:44:22.426Z,33.67
2018-02-20T15:46:49.212Z,31.80
2018-02-20T15:49:15.996Z,40.53
2018-02-20T15:51:42.802Z,38.97
2018-02-20T15:54:09.581Z,41.63
2018-02-20T15:56:37.044Z,35.20
2018-02-20T15:59:04.159Z,34.60
2018-02-20T16:01:31.014Z,31.23
2018-02-20T16:03:57.807Z,36.20
2018-02-20T16:06:24.599Z,23.90
2018-02-20T16:08:51.389Z,34.63
2018-02-20T16:11:18.143Z,26.97
2018-02-20T16:13:44.939Z,34.77
2018-02-20T16:16:13.448Z,41.70
2018-02-20T16:18:41.770Z,31.80
2018-02-20T16:21:09.636Z,34.37
2018-02-20T16:23:36.438Z,33.93
2018-02-20T16:26:04.110Z,39.97
2018-02-20T16:28:30.924Z,27.87
2018-02-20T16:30:57.824Z,36.33
2018-02-20T16:33:24.590Z,41.33
2018-02-20T16:35:51.510Z,39.85
2018-02-20T16:38:19.106Z,39.77
2018-02-20T16:40:45.895Z,29.60
2018-02-20T16:43:12.737Z,36.55
2018-02-20T16:45:39.705Z,29.52
2018-02-20T16:48:06.958Z,26.10
2018-02-20T16:50:33.799Z,37.90
2018-02-20T16:53:01.340Z,38.97
2018-02-20T16:55:29.405Z,36.15
2018-02-20T16:57:56.189Z,32.50
2018-02-20T17:00:22.951Z,31.60
2018-02-20T17:02:49.716Z,27.87
2018-02-20T17:05:16.603Z,39.88
2018-02-20T17:07:44.177Z,27.03
2018-02-20T17:10:10.970Z,27.67
2018-02-20T17:12:37.777Z,23.37
2018-02-20T17:15:04.549Z,29.00
2018-02-20T17:17:31.374Z,25.77
2018-02-20T17:19:58.159Z,19.83
2018-02-20T17:22:24.933Z,28.38
2018-02-20T17:24:51.712Z,22.77
2018-02-20T17:27:18.475Z,17.60
2018-02-20T17:29:45.302Z,19.30
2018-02-20T17:32:12.038Z,15.93
2018-02-20T17:34:38.812Z,18.23
2018-02-20T17:37:05.591Z,23.08
2018-02-20T17:39:32.359Z,17.75
2018-02-20T17:41:59.151Z,26.30
2018-02-20T17:44:27.372Z,19.80
2018-02-20T17:46:54.389Z,20.75
2018-02-20T17:49:21.227Z,21.05
2018-02-20T17:51:48.696Z,13.85
2018-02-20T17:54:15.478Z,18.48
2018-02-20T17:56:42.230Z,18.40
2018-02-20T17:59:08.982Z,17.00
2018-02-20T18:01:35.777Z,27.93
2018-02-20T18:04:03.391Z,26.27
2018-02-20T18:06:30.206Z,16.10
2018-02-20T18:08:56.984Z,22.40
2018-02-20T18:11:23.773Z,23.55
2018-02-20T18:13:50.602Z,23.12
2018-02-20T18:16:17.394Z,24.67
2018-02-20T18:18:44.187Z,18.10
2018-02-20T18:21:10.973Z,18.12
2018-02-20T18:23:37.730Z,15.75
2018-02-20T18:26:04.553Z,14.93
2018-02-20T18:28:31.370Z,19.05
2018-02-20T18:30:58.186Z,19.53
2018-02-20T18:33:25.625Z,16.20
2018-02-20T18:35:52.391Z,21.83
2018-02-20T18:38:19.359Z,21.17
2018-02-20T18:40:46.115Z,19.27
2018-02-20T18:43:12.934Z,16.70
2018-02-20T18:45:40.320Z,15.35
2018-02-20T18:48:07.099Z,17.25
2018-02-20T18:50:33.857Z,26.25
2018-02-20T18:53:01.256Z,21.65
2018-02-20T18:55:28.096Z,20.27
2018-02-20T18:57:54.863Z,17.40
2018-02-20T19:00:21.637Z,22.30
2018-02-20T19:02:48.411Z,13.95
2018-02-20T19:05:15.176Z,19.85
2018-02-20T19:07:42.542Z,19.47
2018-02-20T19:10:09.315Z,15.63
2018-02-20T19:12:36.098Z,16.60
2018-02-20T19:15:02.886Z,21.62
2018-02-20T19:17:29.645Z,18.87
2018-02-20T19:19:56.451Z,19.77
2018-02-20T19:22:23.223Z,16.33
2018-02-20T19:24:50.027Z,14.48
2018-02-20T19:27:17.094Z,18.83
2018-02-20T19:29:43.855Z,28.87
2018-02-20T19:32:10.648Z,19.60
2018-02-20T19:34:37.424Z,24.15
2018-02-20T19:37:04.181Z,20.62
2018-02-20T19:39:30.958Z,23.62
2018-02-20T19:41:58.424Z,17.35
2018-02-20T19:44:25.558Z,21.23
2018-02-20T19:46:52.336Z,17.17
2018-02-20T19:49:19.528Z,23.08
2018-02-20T19:51:46.295Z,36.05
2018-02-20T19:54:13.108Z,20.20
2018-02-20T19:56:39.948Z,21.17
2018-02-20T19:59:06.726Z,19.40
2018-02-20T20:01:33.518Z,18.77
2018-02-20T20:04:00.279Z,17.30
2018-02-20T20:06:27.083Z,27.40
2018-02-20T20:08:53.879Z,21.73
2018-02-20T20:11:20.808Z,21.55
2018-02-20T20:13:47.583Z,27.85
2018-02-20T20:16:14.393Z,28.90
2018-02-20T20:18:41.160Z,20.90
2018-02-20T20:21:07.989Z,20.70
2018-02-20T20:23:35.220Z,18.83
2018-02-20T20:26:02.290Z,22.30
2018-02-20T20:28:29.080Z,25.40
2018-02-20T20:30:56.233Z,20.20
2018-02-20T20:33:23.039Z,27.05
2018-02-20T20:35:49.814Z,21.62
2018-02-20T20:38:16.796Z,24.15
2018-02-20T20:40:43.576Z,17.37
2018-02-20T20:43:10.414Z,18.77
2018-02-20T20:45:37.247Z,18.77
2018-02-20T20:48:04.067Z,21.27
2018-02-20T20:50:31.850Z,21.95
2018-02-20T20:52:58.637Z,23.80
2018-02-20T20:55:25.437Z,23.38
2018-02-20T20:57:52.224Z,24.37
2018-02-20T21:00:19.013Z,23.87
2018-02-20T21:02:45.776Z,23.50
2018-02-20T21:05:12.565Z,24.80
2018-02-20T21:07:39.319Z,25.45
2018-02-20T21:10:06.324Z,30.57
2018-02-20T21:12:33.107Z,21.48
2018-02-20T21:15:00.160Z,25.20
2018-02-20T21:17:26.921Z,14.05
2018-02-20T21:19:53.691Z,24.92
2018-02-20T21:22:20.509Z,21.42
2018-02-20T21:24:47.290Z,26.10
2018-02-20T21:27:14.061Z,24.35
2018-02-20T21:29:40.830Z,25.23
2018-02-20T21:32:07.588Z,27.05
2018-02-20T21:34:34.409Z,19.87
2018-02-20T21:37:01.167Z,20.90
2018-02-20T21:39:27.942Z,25.23
2018-02-20T21:41:54.712Z,29.35
2018-02-20T21:44:21.480Z,25.15
2018-02-20T21:46:48.262Z,23.27
2018-02-20T21:49:15.044Z,27.58
2018-02-20T21:51:41.837Z,23.85
2018-02-20T21:54:08.628Z,21.80
2018-02-20T21:56:36.212Z,22.33
2018-02-20T21:59:03.028Z,17.95
2018-02-20T22:01:29.831Z,21.50
2018-02-20T22:03:56.640Z,22.23
2018-02-20T22:06:23.393Z,20.87
2018-02-20T22:08:50.155Z,23.73
2018-02-20T22:11:16.966Z,29.63
2018-02-20T22:13:43.757Z,23.35
2018-02-20T22:16:10.534Z,34.78
2018-02-20T22:18:37.798Z,15.52
2018-02-20T22:21:04.585Z,19.33
2018-02-20T22:23:31.388Z,27.33
2018-02-20T22:25:58.158Z,19.98
2018-02-20T22:28:24.956Z,25.98
2018-02-20T22:30:51.735Z,18.33
2018-02-20T22:33:18.655Z,21.37
2018-02-20T22:35:45.501Z,21.23
2018-02-20T22:38:12.286Z,23.85
2018-02-20T22:40:39.112Z,23.00
2018-02-20T22:43:05.928Z,19.87
2018-02-20T22:45:32.698Z,23.45
2018-02-20T22:47:59.883Z,19.37
2018-02-20T22:50:26.685Z,29.20
2018-02-20T22:52:53.442Z,20.70
2018-02-20T22:55:20.189Z,21.37
2018-02-20T22:57:46.970Z,27.27
2018-02-20T23:00:13.797Z,25.25
2018-02-20T23:02:40.901Z,18.92
2018-02-20T23:05:07.682Z,15.20
2018-02-20T23:07:35.078Z,13.93
2018-02-20T23:10:01.839Z,27.75
2018-02-20T23:12:28.809Z,26.08
2018-02-20T23:14:55.589Z,17.70
2018-02-20T23:17:22.356Z,24.90
2018-02-20T23:19:49.108Z,20.33
2018-02-20T23:22:15.854Z,16.85
2018-02-20T23:24:43.469Z,15.20
2018-02-20T23:27:10.241Z,16.75
2018-02-20T23:29:37.017Z,19.70
2018-02-20T23:32:03.774Z,22.05
2018-02-20T23:34:30.538Z,16.02
2018-02-20T23:36:57.324Z,17.50
2018-02-20T23:39:24.126Z,19.73
2018-02-20T23:41:50.894Z,23.02
2018-02-20T23:44:17.662Z,16.48
2018-02-20T23:46:44.463Z,17.77
2018-02-20T23:49:11.276Z,17.30
2018-02-20T23:51:38.030Z,13.60
2018-02-20T23:54:04.804Z,18.95
2018-02-20T23:56:31.574Z,14.68
2018-02-20T23:58:58.371Z,24.50
